Kt Birdie — 3FUJ7 — position and weather

sailwx.info

Track history (hours):
 
Tides and Currents Weather Stations Pressure Air Temp Water Temp Dewpoint Dewpoint Depression Visibility Wind Speed Wind Dir Waves Ship Positions

Kt Birdie

Last reported at 2017-Aug-30 05:36 UTC. Time now 2017-Oct-19 23:58 UTC.
Position N 39°60' W 032°01'.
Warning: this ship's position is 50 days out of date.

Length 225 m; draft 7.6 m.

Type: Cargo ship. MMSI: 354803000.

Date/timePositionNaut miles runAvg speedWind from/ knotsBaromVisibWave heightAir tempDewpointWater temp
2017-Aug-30 05:36N 39°60' W 032°01'312.5
2017-Aug-30 05:23N 40°01' W 031°58'5812.5
2017-Aug-30 00:44N 40°27' W 030°50'  
2017-Aug-26 04:55N 49°07' W 006°31'611.8
2017-Aug-26 04:25N 49°09' W 006°22'512.1
2017-Aug-26 04:00N 49°11' W 006°15'612.7
2017-Aug-26 03:30N 49°13' W 006°06'813.1
2017-Aug-26 02:54N 49°16' W 005°55'613.4
2017-Aug-26 02:28N 49°18' W 005°47'613.8
2017-Aug-26 02:00N 49°20' W 005°37'713.9
2017-Aug-26 01:30N 49°23' W 005°27'914.1
2017-Aug-26 00:52N 49°26' W 005°14'614.0
2017-Aug-26 00:27N 49°28' W 005°06'614.0
2017-Aug-26 00:00N 49°30' W 004°57'713.6
2017-Aug-25 23:30N 49°33' W 004°47'713.2
2017-Aug-25 23:00N 49°35' W 004°38'612.7
2017-Aug-25 22:31N 49°37' W 004°28'612.3
2017-Aug-25 22:00N 49°39' W 004°20'611.9
2017-Aug-25 21:30N 49°42' W 004°12'611.3
2017-Aug-25 21:01N 49°44' W 004°03'611.4
2017-Aug-25 20:31N 49°46' W 003°55'611.2
2017-Aug-25 20:00N 49°48' W 003°47'611.3
2017-Aug-25 19:31N 49°50' W 003°39'611.4
2017-Aug-25 19:01N 49°52' W 003°31'611.9
2017-Aug-25 18:30N 49°54' W 003°22'612.7
2017-Aug-25 18:01N 49°56' W 003°12'713.4
2017-Aug-25 17:31N 49°58' W 003°03'714.2
2017-Aug-25 17:01N 50°00' W 002°52'815.1
2017-Aug-25 16:31N 50°02' W 002°41'815.7
2017-Aug-25 16:00N 50°05' W 002°29'816.1
2017-Aug-25 15:31N 50°07' W 002°17'815.9
2017-Aug-25 15:00N 50°09' W 002°05'815.3
2017-Aug-25 14:30N 50°11' W 001°54'1413.9
2017-Aug-25 13:30N 50°15' W 001°33'612.4
2017-Aug-25 13:00N 50°16' W 001°23'611.6
2017-Aug-25 12:30N 50°18' W 001°15'510.7
2017-Aug-25 12:00N 50°19' W 001°07'5 9.7
2017-Aug-25 11:30N 50°20' W 000°59'5 9.3
2017-Aug-25 11:01N 50°22' W 000°52'5 9.1
2017-Aug-25 10:30N 50°23' W 000°45'5 9.6
2017-Aug-25 10:00N 50°24' W 000°38'510.0
2017-Aug-25 09:30N 50°26' W 000°31'511.0
2017-Aug-25 09:00N 50°27' W 000°22'611.8
2017-Aug-25 08:30N 50°29' W 000°13'612.7
2017-Aug-25 08:00N 50°31' W 000°04'713.4
2017-Aug-25 07:30N 50°32' E 000°07'713.9
2017-Aug-25 07:01N 50°34' E 000°17'714.2
2017-Aug-25 06:30N 50°36' E 000°28'714.0
2017-Aug-25 06:01N 50°39' E 000°38'713.9
2017-Aug-25 05:30N 50°43' E 000°47'713.3
2017-Aug-25 05:00N 50°48' E 000°55'612.8
2017-Aug-25 04:30N 50°52' E 001°03'612.2
2017-Aug-25 04:00N 50°55' E 001°10'611.4
2017-Aug-25 03:30N 50°59' E 001°17'510.4
2017-Aug-25 03:00N 51°02' E 001°24'5 9.8
2017-Aug-25 02:30N 51°05' E 001°30'5 9.2
2017-Aug-25 02:00N 51°08' E 001°35'5 9.7
2017-Aug-25 01:30N 51°11' E 001°41'510.5
2017-Aug-25 01:00N 51°15' E 001°48'611.7
2017-Aug-25 00:30N 51°20' E 001°52'713.1
2017-Aug-25 00:01N 51°26' E 001°56'714.2
2017-Aug-24 23:31N 51°32' E 002°03'714.4
2017-Aug-24 23:01N 51°37' E 002°11'814.6
2017-Aug-24 22:30N 51°43' E 002°19'814.4
2017-Aug-24 21:56N 51°49' E 002°28'814.1
2017-Aug-24 21:21N 51°54' E 002°37'1312.6
2017-Aug-24 20:19N 52°02' E 002°54'412.5
2017-Aug-24 20:00N 52°03' E 003°00'1734.1
2017-Aug-24 19:30N 52°04' E 003°28'0 0.0
2017-Aug-24 19:00N 52°04' E 003°28'1 1.6
2017-Aug-24 18:30N 52°04' E 003°30'612.7
2017-Aug-24 18:00N 52°04' E 003°40'510.4
2017-Aug-24 17:31N 52°04' E 003°49'5 9.0
2017-Aug-24 17:00N 52°03' E 003°56'4 7.8
2017-Aug-24 16:31N 52°00' E 004°00'5 9.2
2017-Aug-24 16:00N 51°58' E 004°07'0 0.5
2017-Aug-24 15:30N 51°58' E 004°07'0 0.0
2017-Aug-24 15:01N 51°58' E 004°07'0 0.0
2017-Aug-24 14:30N 51°58' E 004°07'0 0.0
2017-Aug-24 14:01N 51°58' E 004°07'0 0.0
2017-Aug-24 13:30N 51°58' E 004°07'0 0.0
2017-Aug-24 13:00N 51°58' E 004°07'0 0.0
2017-Aug-24 12:30N 51°58' E 004°07'0 0.0
2017-Aug-24 12:01N 51°58' E 004°07'0 0.0
2017-Aug-24 11:31N 51°58' E 004°07'0 0.0
2017-Aug-24 11:00N 51°58' E 004°07'0 0.0
2017-Aug-24 10:31N 51°58' E 004°07'0 0.0
2017-Aug-24 10:00N 51°58' E 004°07'0 0.0
2017-Aug-24 09:30N 51°58' E 004°07'0 0.0
2017-Aug-24 09:01N 51°58' E 004°07'0 0.0
2017-Aug-24 08:30N 51°58' E 004°07'0 0.0
2017-Aug-24 08:01N 51°58' E 004°07'0 0.0
2017-Aug-24 07:30N 51°58' E 004°07'0 0.0
2017-Aug-24 07:01N 51°58' E 004°07'0 0.0
2017-Aug-24 06:30N 51°58' E 004°07'0 0.0
2017-Aug-24 06:00N 51°58' E 004°07'0 0.0
2017-Aug-24 05:30N 51°58' E 004°07'0 0.0
2017-Aug-24 05:00N 51°58' E 004°07'0 0.0
2017-Aug-24 04:31N 51°58' E 004°07'0 0.0
2017-Aug-24 04:00N 51°58' E 004°07'0 0.0
2017-Aug-24 03:30N 51°58' E 004°07'0 0.0
2017-Aug-24 03:00N 51°58' E 004°07'0 0.0
2017-Aug-24 02:30N 51°58' E 004°07'0 0.0
2017-Aug-24 02:00N 51°58' E 004°07'0 0.0
2017-Aug-24 01:30N 51°58' E 004°07'0 0.0
2017-Aug-24 01:00N 51°58' E 004°07'0 0.0
2017-Aug-24 00:31N 51°58' E 004°07'0 0.0
2017-Aug-24 00:00N 51°58' E 004°07'0 0.0
2017-Aug-23 23:30N 51°58' E 004°07'0 0.0
2017-Aug-23 23:01N 51°58' E 004°07'0 0.0
2017-Aug-23 22:30N 51°58' E 004°07'0 0.0
2017-Aug-23 22:00N 51°58' E 004°07'0 0.0
2017-Aug-23 21:31N 51°58' E 004°07'0 0.0
2017-Aug-23 21:01N 51°58' E 004°07'0 0.0
2017-Aug-23 20:31N 51°58' E 004°07'0 0.0
2017-Aug-23 20:00N 51°58' E 004°07'0 0.0
2017-Aug-23 19:31N 51°58' E 004°07'0 0.0
2017-Aug-23 19:00N 51°58' E 004°07'0 0.0
2017-Aug-23 18:30N 51°58' E 004°07'0 0.0
2017-Aug-23 18:00N 51°58' E 004°07'0 0.0
2017-Aug-23 17:30N 51°58' E 004°07'0 0.0
2017-Aug-23 17:01N 51°58' E 004°07'0 0.0
2017-Aug-23 16:30N 51°58' E 004°07'0 0.0
2017-Aug-23 16:00N 51°58' E 004°07'0 0.0
2017-Aug-23 15:30N 51°58' E 004°07'0 0.0
2017-Aug-23 15:00N 51°58' E 004°07'0 0.0
2017-Aug-23 14:30N 51°58' E 004°07'0 0.0
2017-Aug-23 13:30N 51°58' E 004°07'0 0.0
2017-Aug-23 13:00N 51°58' E 004°07'0 0.0
2017-Aug-23 12:31N 51°58' E 004°07'0 0.0
2017-Aug-23 12:01N 51°58' E 004°07'0 0.0
2017-Aug-23 11:30N 51°58' E 004°07'0 0.0
2017-Aug-23 11:00N 51°58' E 004°07'0 0.0
2017-Aug-23 10:30N 51°58' E 004°07'0 0.0
2017-Aug-23 10:00N 51°58' E 004°07'0 0.0
2017-Aug-23 09:30N 51°58' E 004°07'0 0.0
2017-Aug-23 09:00N 51°58' E 004°07'0 0.0
2017-Aug-23 08:30N 51°58' E 004°07'0 0.0
2017-Aug-23 08:00N 51°58' E 004°07'0 0.0
2017-Aug-23 07:30N 51°58' E 004°07'0 0.0
2017-Aug-23 07:00N 51°58' E 004°07'0 0.0
2017-Aug-23 06:30N 51°58' E 004°07'0 0.0
2017-Aug-23 06:00N 51°58' E 004°07'0 0.0
2017-Aug-23 05:30N 51°58' E 004°07'0 0.0
2017-Aug-23 05:00N 51°58' E 004°07'0 0.0
2017-Aug-23 04:30N 51°58' E 004°07'0 0.0
2017-Aug-23 04:00N 51°58' E 004°07'0 0.0
2017-Aug-23 03:30N 51°58' E 004°07'0 0.0
2017-Aug-23 03:00N 51°58' E 004°07'0 0.0
2017-Aug-23 02:30N 51°58' E 004°07'0 0.0
2017-Aug-23 02:00N 51°58' E 004°07'0 0.0
2017-Aug-23 01:30N 51°58' E 004°07'0 0.0
2017-Aug-23 01:00N 51°58' E 004°07'0 0.0
2017-Aug-23 00:30N 51°58' E 004°07'0 0.0
2017-Aug-23 00:00N 51°58' E 004°07'0 0.0
2017-Aug-22 23:30N 51°58' E 004°07'0 0.0
2017-Aug-22 23:00N 51°58' E 004°07'0 0.0
2017-Aug-22 22:30N 51°58' E 004°07'0 0.0
2017-Aug-22 22:00N 51°58' E 004°07'0 0.0
2017-Aug-22 21:30N 51°58' E 004°07'0 0.0
2017-Aug-22 21:00N 51°58' E 004°07'0 0.0
2017-Aug-22 20:30N 51°58' E 004°07'0 0.0
2017-Aug-22 20:00N 51°58' E 004°07'0 0.0
2017-Aug-22 19:30N 51°58' E 004°07'0 0.0
2017-Aug-22 19:00N 51°58' E 004°07'0 0.0
2017-Aug-22 18:30N 51°58' E 004°07'0 0.0
2017-Aug-22 18:00N 51°58' E 004°07'0 0.0
2017-Aug-22 17:30N 51°58' E 004°07'0 0.0
2017-Aug-22 17:00N 51°58' E 004°07'0 0.0
2017-Aug-22 16:30N 51°58' E 004°07'0 0.0
2017-Aug-22 16:00N 51°58' E 004°07'0 0.0
2017-Aug-22 15:30N 51°58' E 004°07'0 0.0
2017-Aug-22 15:00N 51°58' E 004°07'0 0.0
2017-Aug-22 14:30N 51°58' E 004°07'0 0.0
2017-Aug-22 14:00N 51°58' E 004°07'0 0.0
2017-Aug-22 13:30N 51°58' E 004°07'0 0.0
2017-Aug-22 13:00N 51°58' E 004°07'0 0.0
2017-Aug-22 12:30N 51°58' E 004°07'0 0.0
2017-Aug-22 12:00N 51°58' E 004°07'0 0.0
2017-Aug-22 11:30N 51°58' E 004°07'0 0.0
2017-Aug-22 11:00N 51°58' E 004°07'0 0.0
2017-Aug-22 10:30N 51°58' E 004°07'0 0.0
2017-Aug-22 10:00N 51°58' E 004°07'0 0.0
2017-Aug-22 09:30N 51°58' E 004°07'0 0.0
2017-Aug-22 09:00N 51°58' E 004°07'0 0.0
2017-Aug-22 08:30N 51°58' E 004°07'0 0.0
2017-Aug-22 08:00N 51°58' E 004°07'0 0.0
2017-Aug-22 07:30N 51°58' E 004°07'0 0.0
2017-Aug-22 07:00N 51°58' E 004°07'0 0.0
2017-Aug-22 06:30N 51°58' E 004°07'0 0.0
2017-Aug-22 06:00N 51°58' E 004°07'0 0.0
2017-Aug-22 05:30N 51°58' E 004°07'0 0.0
2017-Aug-22 05:00N 51°58' E 004°07'0 0.0
2017-Aug-22 04:30N 51°58' E 004°07'1 1.7
2017-Aug-22 04:00N 51°58' E 004°06'4 7.2
2017-Aug-22 03:30N 51°60' E 004°01'5 9.9
2017-Aug-22 03:00N 52°00' E 003°53'3 6.5
2017-Aug-22 02:30N 51°60' E 003°48'3 5.2
2017-Aug-22 02:00N 51°59' E 003°44'3 5.2
2017-Aug-22 01:30N 51°58' E 003°40'5 9.4
2017-Aug-22 01:00N 51°56' E 003°33'1 1.7
2017-Aug-22 00:30N 51°55' E 003°32'0 0.0
2017-Aug-21 00:22N 51°55' E 003°32'0 0.0
2017-Aug-21 00:00N 51°55' E 003°32'0 0.0
2017-Aug-20 23:30N 51°55' E 003°32'0 0.0
2017-Aug-20 15:12N 51°55' E 003°32'0 0.0
2017-Aug-20 15:00N 51°55' E 003°32'  
Track history (hours):
 
Tides and Currents Weather Stations Pressure Air Temp Water Temp Dewpoint Dewpoint Depression Visibility Wind Speed Wind Dir Waves Ship Positions

Kt Birdie

Last reported at 2017-Aug-30 05:36 UTC. Time now 2017-Oct-19 23:58 UTC.
Position N 39°60' W 032°01'.
Warning: this ship's position is 50 days out of date.

Length 225 m; draft 7.6 m.

Type: Cargo ship. MMSI: 354803000.

Date/timePositionNaut miles runAvg speedWind from/ knotsBaromVisibWave heightAir tempDewpointWater temp
2017-Aug-30 05:36N 39°60' W 032°01'312.5
2017-Aug-30 05:23N 40°01' W 031°58'5812.5
2017-Aug-30 00:44N 40°27' W 030°50'  
2017-Aug-26 04:55N 49°07' W 006°31'611.8
2017-Aug-26 04:25N 49°09' W 006°22'512.1
2017-Aug-26 04:00N 49°11' W 006°15'612.7
2017-Aug-26 03:30N 49°13' W 006°06'813.1
2017-Aug-26 02:54N 49°16' W 005°55'613.4
2017-Aug-26 02:28N 49°18' W 005°47'613.8
2017-Aug-26 02:00N 49°20' W 005°37'713.9
2017-Aug-26 01:30N 49°23' W 005°27'914.1
2017-Aug-26 00:52N 49°26' W 005°14'614.0
2017-Aug-26 00:27N 49°28' W 005°06'614.0
2017-Aug-26 00:00N 49°30' W 004°57'713.6
2017-Aug-25 23:30N 49°33' W 004°47'713.2
2017-Aug-25 23:00N 49°35' W 004°38'612.7
2017-Aug-25 22:31N 49°37' W 004°28'612.3
2017-Aug-25 22:00N 49°39' W 004°20'611.9
2017-Aug-25 21:30N 49°42' W 004°12'611.3
2017-Aug-25 21:01N 49°44' W 004°03'611.4
2017-Aug-25 20:31N 49°46' W 003°55'611.2
2017-Aug-25 20:00N 49°48' W 003°47'611.3
2017-Aug-25 19:31N 49°50' W 003°39'611.4
2017-Aug-25 19:01N 49°52' W 003°31'611.9
2017-Aug-25 18:30N 49°54' W 003°22'612.7
2017-Aug-25 18:01N 49°56' W 003°12'713.4
2017-Aug-25 17:31N 49°58' W 003°03'714.2
2017-Aug-25 17:01N 50°00' W 002°52'815.1
2017-Aug-25 16:31N 50°02' W 002°41'815.7
2017-Aug-25 16:00N 50°05' W 002°29'816.1
2017-Aug-25 15:31N 50°07' W 002°17'815.9
2017-Aug-25 15:00N 50°09' W 002°05'815.3
2017-Aug-25 14:30N 50°11' W 001°54'1413.9
2017-Aug-25 13:30N 50°15' W 001°33'612.4
2017-Aug-25 13:00N 50°16' W 001°23'611.6
2017-Aug-25 12:30N 50°18' W 001°15'510.7
2017-Aug-25 12:00N 50°19' W 001°07'5 9.7
2017-Aug-25 11:30N 50°20' W 000°59'5 9.3
2017-Aug-25 11:01N 50°22' W 000°52'5 9.1
2017-Aug-25 10:30N 50°23' W 000°45'5 9.6
2017-Aug-25 10:00N 50°24' W 000°38'510.0
2017-Aug-25 09:30N 50°26' W 000°31'511.0
2017-Aug-25 09:00N 50°27' W 000°22'611.8
2017-Aug-25 08:30N 50°29' W 000°13'612.7
2017-Aug-25 08:00N 50°31' W 000°04'713.4
2017-Aug-25 07:30N 50°32' E 000°07'713.9
2017-Aug-25 07:01N 50°34' E 000°17'714.2
2017-Aug-25 06:30N 50°36' E 000°28'714.0
2017-Aug-25 06:01N 50°39' E 000°38'713.9
2017-Aug-25 05:30N 50°43' E 000°47'713.3
2017-Aug-25 05:00N 50°48' E 000°55'612.8
2017-Aug-25 04:30N 50°52' E 001°03'612.2
2017-Aug-25 04:00N 50°55' E 001°10'611.4
2017-Aug-25 03:30N 50°59' E 001°17'510.4
2017-Aug-25 03:00N 51°02' E 001°24'5 9.8
2017-Aug-25 02:30N 51°05' E 001°30'5 9.2
2017-Aug-25 02:00N 51°08' E 001°35'5 9.7
2017-Aug-25 01:30N 51°11' E 001°41'510.5
2017-Aug-25 01:00N 51°15' E 001°48'611.7
2017-Aug-25 00:30N 51°20' E 001°52'713.1
2017-Aug-25 00:01N 51°26' E 001°56'714.2
2017-Aug-24 23:31N 51°32' E 002°03'714.4
2017-Aug-24 23:01N 51°37' E 002°11'814.6
2017-Aug-24 22:30N 51°43' E 002°19'814.4
2017-Aug-24 21:56N 51°49' E 002°28'814.1
2017-Aug-24 21:21N 51°54' E 002°37'1312.6
2017-Aug-24 20:19N 52°02' E 002°54'412.5
2017-Aug-24 20:00N 52°03' E 003°00'1734.1
2017-Aug-24 19:30N 52°04' E 003°28'0 0.0
2017-Aug-24 19:00N 52°04' E 003°28'1 1.6
2017-Aug-24 18:30N 52°04' E 003°30'612.7
2017-Aug-24 18:00N 52°04' E 003°40'510.4
2017-Aug-24 17:31N 52°04' E 003°49'5 9.0
2017-Aug-24 17:00N 52°03' E 003°56'4 7.8
2017-Aug-24 16:31N 52°00' E 004°00'5 9.2
2017-Aug-24 16:00N 51°58' E 004°07'0 0.5
2017-Aug-24 15:30N 51°58' E 004°07'0 0.0
2017-Aug-24 15:01N 51°58' E 004°07'0 0.0
2017-Aug-24 14:30N 51°58' E 004°07'0 0.0
2017-Aug-24 14:01N 51°58' E 004°07'0 0.0
2017-Aug-24 13:30N 51°58' E 004°07'0 0.0
2017-Aug-24 13:00N 51°58' E 004°07'0 0.0
2017-Aug-24 12:30N 51°58' E 004°07'0 0.0
2017-Aug-24 12:01N 51°58' E 004°07'0 0.0
2017-Aug-24 11:31N 51°58' E 004°07'0 0.0
2017-Aug-24 11:00N 51°58' E 004°07'0 0.0
2017-Aug-24 10:31N 51°58' E 004°07'0 0.0
2017-Aug-24 10:00N 51°58' E 004°07'0 0.0
2017-Aug-24 09:30N 51°58' E 004°07'0 0.0
2017-Aug-24 09:01N 51°58' E 004°07'0 0.0
2017-Aug-24 08:30N 51°58' E 004°07'0 0.0
2017-Aug-24 08:01N 51°58' E 004°07'0 0.0
2017-Aug-24 07:30N 51°58' E 004°07'0 0.0
2017-Aug-24 07:01N 51°58' E 004°07'0 0.0
2017-Aug-24 06:30N 51°58' E 004°07'0 0.0
2017-Aug-24 06:00N 51°58' E 004°07'0 0.0
2017-Aug-24 05:30N 51°58' E 004°07'0 0.0
2017-Aug-24 05:00N 51°58' E 004°07'0 0.0
2017-Aug-24 04:31N 51°58' E 004°07'0 0.0
2017-Aug-24 04:00N 51°58' E 004°07'0 0.0
2017-Aug-24 03:30N 51°58' E 004°07'0 0.0
2017-Aug-24 03:00N 51°58' E 004°07'0 0.0
2017-Aug-24 02:30N 51°58' E 004°07'0 0.0
2017-Aug-24 02:00N 51°58' E 004°07'0 0.0
2017-Aug-24 01:30N 51°58' E 004°07'0 0.0
2017-Aug-24 01:00N 51°58' E 004°07'0 0.0
2017-Aug-24 00:31N 51°58' E 004°07'0 0.0
2017-Aug-24 00:00N 51°58' E 004°07'0 0.0
2017-Aug-23 23:30N 51°58' E 004°07'0 0.0
2017-Aug-23 23:01N 51°58' E 004°07'0 0.0
2017-Aug-23 22:30N 51°58' E 004°07'0 0.0
2017-Aug-23 22:00N 51°58' E 004°07'0 0.0
2017-Aug-23 21:31N 51°58' E 004°07'0 0.0
2017-Aug-23 21:01N 51°58' E 004°07'0 0.0
2017-Aug-23 20:31N 51°58' E 004°07'0 0.0
2017-Aug-23 20:00N 51°58' E 004°07'0 0.0
2017-Aug-23 19:31N 51°58' E 004°07'0 0.0
2017-Aug-23 19:00N 51°58' E 004°07'0 0.0
2017-Aug-23 18:30N 51°58' E 004°07'0 0.0
2017-Aug-23 18:00N 51°58' E 004°07'0 0.0
2017-Aug-23 17:30N 51°58' E 004°07'0 0.0
2017-Aug-23 17:01N 51°58' E 004°07'0 0.0
2017-Aug-23 16:30N 51°58' E 004°07'0 0.0
2017-Aug-23 16:00N 51°58' E 004°07'0 0.0
2017-Aug-23 15:30N 51°58' E 004°07'0 0.0
2017-Aug-23 15:00N 51°58' E 004°07'0 0.0
2017-Aug-23 14:30N 51°58' E 004°07'0 0.0
2017-Aug-23 13:30N 51°58' E 004°07'0 0.0
2017-Aug-23 13:00N 51°58' E 004°07'0 0.0
2017-Aug-23 12:31N 51°58' E 004°07'0 0.0
2017-Aug-23 12:01N 51°58' E 004°07'0 0.0
2017-Aug-23 11:30N 51°58' E 004°07'0 0.0
2017-Aug-23 11:00N 51°58' E 004°07'0 0.0
2017-Aug-23 10:30N 51°58' E 004°07'0 0.0
2017-Aug-23 10:00N 51°58' E 004°07'0 0.0
2017-Aug-23 09:30N 51°58' E 004°07'0 0.0
2017-Aug-23 09:00N 51°58' E 004°07'0 0.0
2017-Aug-23 08:30N 51°58' E 004°07'0 0.0
2017-Aug-23 08:00N 51°58' E 004°07'0 0.0
2017-Aug-23 07:30N 51°58' E 004°07'0 0.0
2017-Aug-23 07:00N 51°58' E 004°07'0 0.0
2017-Aug-23 06:30N 51°58' E 004°07'0 0.0
2017-Aug-23 06:00N 51°58' E 004°07'0 0.0
2017-Aug-23 05:30N 51°58' E 004°07'0 0.0
2017-Aug-23 05:00N 51°58' E 004°07'0 0.0
2017-Aug-23 04:30N 51°58' E 004°07'0 0.0
2017-Aug-23 04:00N 51°58' E 004°07'0 0.0
2017-Aug-23 03:30N 51°58' E 004°07'0 0.0
2017-Aug-23 03:00N 51°58' E 004°07'0 0.0
2017-Aug-23 02:30N 51°58' E 004°07'0 0.0
2017-Aug-23 02:00N 51°58' E 004°07'0 0.0
2017-Aug-23 01:30N 51°58' E 004°07'0 0.0
2017-Aug-23 01:00N 51°58' E 004°07'0 0.0
2017-Aug-23 00:30N 51°58' E 004°07'0 0.0
2017-Aug-23 00:00N 51°58' E 004°07'0 0.0
2017-Aug-22 23:30N 51°58' E 004°07'0 0.0
2017-Aug-22 23:00N 51°58' E 004°07'0 0.0
2017-Aug-22 22:30N 51°58' E 004°07'0 0.0
2017-Aug-22 22:00N 51°58' E 004°07'0 0.0
2017-Aug-22 21:30N 51°58' E 004°07'0 0.0
2017-Aug-22 21:00N 51°58' E 004°07'0 0.0
2017-Aug-22 20:30N 51°58' E 004°07'0 0.0
2017-Aug-22 20:00N 51°58' E 004°07'0 0.0
2017-Aug-22 19:30N 51°58' E 004°07'0 0.0
2017-Aug-22 19:00N 51°58' E 004°07'0 0.0
2017-Aug-22 18:30N 51°58' E 004°07'0 0.0
2017-Aug-22 18:00N 51°58' E 004°07'0 0.0
2017-Aug-22 17:30N 51°58' E 004°07'0 0.0
2017-Aug-22 17:00N 51°58' E 004°07'0 0.0
2017-Aug-22 16:30N 51°58' E 004°07'0 0.0
2017-Aug-22 16:00N 51°58' E 004°07'0 0.0
2017-Aug-22 15:30N 51°58' E 004°07'0 0.0
2017-Aug-22 15:00N 51°58' E 004°07'0 0.0
2017-Aug-22 14:30N 51°58' E 004°07'0 0.0
2017-Aug-22 14:00N 51°58' E 004°07'0 0.0
2017-Aug-22 13:30N 51°58' E 004°07'0 0.0
2017-Aug-22 13:00N 51°58' E 004°07'0 0.0
2017-Aug-22 12:30N 51°58' E 004°07'0 0.0
2017-Aug-22 12:00N 51°58' E 004°07'0 0.0
2017-Aug-22 11:30N 51°58' E 004°07'0 0.0
2017-Aug-22 11:00N 51°58' E 004°07'0 0.0
2017-Aug-22 10:30N 51°58' E 004°07'0 0.0
2017-Aug-22 10:00N 51°58' E 004°07'0 0.0
2017-Aug-22 09:30N 51°58' E 004°07'0 0.0
2017-Aug-22 09:00N 51°58' E 004°07'0 0.0
2017-Aug-22 08:30N 51°58' E 004°07'0 0.0
2017-Aug-22 08:00N 51°58' E 004°07'0 0.0
2017-Aug-22 07:30N 51°58' E 004°07'0 0.0
2017-Aug-22 07:00N 51°58' E 004°07'0 0.0
2017-Aug-22 06:30N 51°58' E 004°07'0 0.0
2017-Aug-22 06:00N 51°58' E 004°07'0 0.0
2017-Aug-22 05:30N 51°58' E 004°07'0 0.0
2017-Aug-22 05:00N 51°58' E 004°07'0 0.0
2017-Aug-22 04:30N 51°58' E 004°07'1 1.7
2017-Aug-22 04:00N 51°58' E 004°06'4 7.2
2017-Aug-22 03:30N 51°60' E 004°01'5 9.9
2017-Aug-22 03:00N 52°00' E 003°53'3 6.5
2017-Aug-22 02:30N 51°60' E 003°48'3 5.2
2017-Aug-22 02:00N 51°59' E 003°44'3 5.2
2017-Aug-22 01:30N 51°58' E 003°40'5 9.4
2017-Aug-22 01:00N 51°56' E 003°33'1 1.7
2017-Aug-22 00:30N 51°55' E 003°32'0 0.0
2017-Aug-21 00:22N 51°55' E 003°32'0 0.0
2017-Aug-21 00:00N 51°55' E 003°32'0 0.0
2017-Aug-20 23:30N 51°55' E 003°32'0 0.0
2017-Aug-20 15:12N 51°55' E 003°32'0 0.0
2017-Aug-20 15:00N 51°55' E 003°32'  

Dump ship's entire track history